New Castle Airport
KILG : now visible

Airfield :











YOU CAN JOIN US ON...

 
LOGIN :

Register | Disclaimer

   EN    FR    IT 

 









Legend :    VFR   Marginal VFR   IFR   Intensive IFR   Very Intensive IFR
Visi :
Ceiling :
>= 8 km
>= 3000ft
5 to 8 km
1000 to 3000 ft
1500m to 5 km
500 to 1000 ft
800 to 1500m
200 to 500 ft
< 800m
< 200 ft
Symbols :   Thunderstorms  Fog  Heavy snow  Heavy precipitations  Wind > 20 kt






- Airport Elevation : 80 ft
- IATA code : ILG


KILG - New Castle

CURRENT METAR :
  • 130451Z AUTO 36003KT 10SM FEW120 24/22 A3007 RMK AO2 SLP182 T02440222 403170233

EXPIRED METARs :
  • 130351Z AUTO 00000KT 10SM CLR 24/21 A3007 RMK AO2 SLP181 T02440211
  • 130251Z AUTO 00000KT 10SM CLR 25/21 A3006 RMK AO2 SLP178 T02500211 50007

TAF KILG
Valid from the 13 at 00:00 until the 14 at 00:00 UTC


122320Z 1300/1324 VRB03KT P6SM BKN150
FM130700 VRB02KT P6SM OVC035
TEMPO 1308/1312 3SM BR
FM131300 08005KT P6SM BKN035
PROB30 1315/1320 4SM TSRA BKN025CB
FM132000 08005KT P6SM OVC050
PROB30 1320/1324 4SM TSRA BKN025CB
KZDC FIR / North America



MET'MAP, your aeronautical weather chart ! - Copyright ORBIFLY December 2007 - Disclaimer

ORBIFLY MET'MAP TEAM :

Programming & Development : Alexandra Zaïnal
Concept & original design : Baudouin d'Aumeries
Assistance for programming : Marc-Olivier Méhu
Technical & hardware support : Manuel Goepfert

Contact : metmap@orbifly.com




SOURCES & CREDITS :

   NOAA       Earth
Advisory